Time;durP1;ratioP1;P1;durP2;ratioP2;P2;SDS_P1;SDS_P2;PMS_P1;PMS_P2;Temp;Humidity;BMP_temperature;BMP_pressure;BME280_temperature;BME280_humidity;BME280_pressure;Samples;Min_cycle;Max_cycle;Signal;HPM_P1;HPM_P2
2021/07/21 00:00:51;;;;;;;13.80;8.30;;;21.90;68.50;;;;;;5027065;28;20110;-68
2021/07/21 00:03:18;;;;;;;15.18;8.27;;;21.90;68.50;;;;;;5019629;28;20480;-68
2021/07/21 00:05:44;;;;;;;13.38;7.43;;;21.80;68.60;;;;;;5024659;28;20029;-68
2021/07/21 00:08:10;;;;;;;13.50;7.43;;;21.80;68.60;;;;;;5014703;28;20022;-68
2021/07/21 00:10:36;;;;;;;12.60;7.40;;;21.70;68.60;;;;;;5023026;28;20025;-68
2021/07/21 00:16:04;;;;;;;13.15;6.78;;;21.70;68.60;;;;;;5023424;28;20064;-68
2021/07/21 00:21:13;;;;;;;13.93;7.53;;;21.60;68.50;;;;;;5019470;28;20054;-68
2021/07/21 00:23:40;;;;;;;14.43;8.40;;;21.60;68.60;;;;;;5033139;28;20045;-68
2021/07/21 00:26:06;;;;;;;14.48;8.25;;;21.50;68.80;;;;;;5023417;28;20057;-68
2021/07/21 00:28:34;;;;;;;19.58;9.40;;;21.50;69.20;;;;;;5024168;28;20030;-68
2021/07/21 00:31:00;;;;;;;16.67;8.57;;;21.50;69.40;;;;;;5014749;28;20038;-68
2021/07/21 00:33:26;;;;;;;14.68;8.55;;;21.50;69.60;;;;;;5012425;28;20478;-68
2021/07/21 00:35:52;;;;;;;16.00;8.95;;;21.40;69.60;;;;;;5032782;28;20029;-68
2021/07/21 00:38:19;;;;;;;14.70;9.13;;;21.40;69.60;;;;;;5017219;28;20061;-68
2021/07/21 00:40:45;;;;;;;15.75;8.40;;;21.40;69.60;;;;;;5030306;28;20122;-68
2021/07/21 00:43:11;;;;;;;17.13;9.05;;;21.30;69.50;;;;;;5028928;28;20029;-68
2021/07/21 00:45:39;;;;;;;14.35;9.32;;;21.30;69.50;;;;;;5039528;28;20498;-68
2021/07/21 00:48:05;;;;;;;16.40;8.98;;;21.30;69.40;;;;;;5016943;28;20038;-68
2021/07/21 00:50:32;;;;;;;17.63;9.32;;;21.30;69.40;;;;;;5024110;28;20458;-68
2021/07/21 00:52:58;;;;;;;15.65;9.43;;;21.20;69.30;;;;;;5021777;28;20038;-68
2021/07/21 00:55:25;;;;;;;16.45;9.73;;;21.20;69.30;;;;;;5017799;28;20084;-68
2021/07/21 00:57:56;;;;;;;16.63;9.40;;;21.10;69.30;;;;;;5020102;28;20025;-68
2021/07/21 01:00:22;;;;;;;21.17;10.10;;;21.20;69.50;;;;;;5028231;28;20028;-68
2021/07/21 01:02:52;;;;;;;18.20;9.50;;;21.10;69.60;;;;;;5013881;28;20061;-68
2021/07/21 01:05:31;;;;;;;21.08;8.75;;;21.10;70.20;;;;;;5012608;28;20033;-68
2021/07/21 01:08:04;;;;;;;18.48;9.02;;;21.10;69.30;;;;;;5024800;28;20115;-68
2021/07/21 01:10:37;;;;;;;19.33;8.90;;;21.00;69.40;;;;;;5046145;28;20025;-68
2021/07/21 01:13:16;;;;;;;13.75;7.78;;;21.00;69.20;;;;;;5035193;28;20072;-68
2021/07/21 01:15:46;;;;;;;15.15;9.80;;;21.00;69.10;;;;;;5019286;28;20018;-68
2021/07/21 01:18:21;;;;;;;14.80;7.68;;;21.00;69.30;;;;;;5022445;28;20080;-69
2021/07/21 01:21:12;;;;;;;16.42;9.00;;;20.90;69.00;;;;;;5023352;28;20384;-68
2021/07/21 01:24:17;;;;;;;15.32;7.60;;;20.90;69.10;;;;;;5018775;28;20038;-68
2021/07/21 01:26:55;;;;;;;13.48;8.52;;;20.80;69.10;;;;;;5026975;28;20033;-68
2021/07/21 01:29:26;;;;;;;12.82;7.60;;;20.80;69.50;;;;;;5019553;28;20378;-68
2021/07/21 01:31:57;;;;;;;17.13;9.32;;;20.80;69.30;;;;;;5031849;28;20052;-68
2021/07/21 01:34:30;;;;;;;16.65;8.95;;;20.70;69.70;;;;;;5019598;28;20052;-68
2021/07/21 01:36:58;;;;;;;18.17;8.50;;;20.60;69.90;;;;;;5030250;28;20428;-68
2021/07/21 01:39:33;;;;;;;19.70;10.05;;;20.70;70.20;;;;;;5012277;28;20473;-68
2021/07/21 01:42:04;;;;;;;17.35;8.55;;;20.60;70.50;;;;;;5019691;28;20021;-68
2021/07/21 01:44:32;;;;;;;19.73;9.15;;;20.60;70.60;;;;;;5010667;28;20022;-68
2021/07/21 01:47:02;;;;;;;16.98;9.23;;;20.50;70.60;;;;;;5023334;28;20115;-68
2021/07/21 01:49:34;;;;;;;16.15;8.90;;;20.50;70.60;;;;;;5026714;28;20029;-68
2021/07/21 01:52:07;;;;;;;16.90;8.97;;;20.50;70.80;;;;;;5012982;28;20040;-68
2021/07/21 01:54:33;;;;;;;16.85;9.38;;;20.40;71.50;;;;;;5015111;28;20055;-68
2021/07/21 01:57:08;;;;;;;16.73;9.02;;;20.40;71.10;;;;;;5018574;28;20030;-68
2021/07/21 01:59:34;;;;;;;14.20;8.13;;;20.40;71.40;;;;;;5017864;28;20089;-68
2021/07/21 02:02:11;;;;;;;13.48;8.00;;;20.40;71.40;;;;;;5016608;28;20029;-68
2021/07/21 02:04:52;;;;;;;16.17;8.65;;;20.30;71.30;;;;;;5011475;28;20061;-68
2021/07/21 02:07:20;;;;;;;16.50;9.00;;;20.20;71.40;;;;;;5013539;28;20026;-68
2021/07/21 02:09:47;;;;;;;19.02;9.52;;;20.20;71.70;;;;;;5011656;28;20036;-68
2021/07/21 02:12:27;;;;;;;18.60;9.43;;;20.20;71.90;;;;;;5012101;28;20537;-68
2021/07/21 02:14:53;;;;;;;15.30;8.68;;;20.20;72.20;;;;;;5015857;28;20017;-68
2021/07/21 02:17:20;;;;;;;15.18;8.40;;;20.20;72.40;;;;;;5027052;28;20474;-68
2021/07/21 02:19:48;;;;;;;15.25;9.15;;;20.10;72.50;;;;;;5034491;28;20560;-68
2021/07/21 02:22:21;;;;;;;16.55;9.40;;;20.10;72.70;;;;;;5012410;28;20040;-68
2021/07/21 02:25:02;;;;;;;15.32;8.40;;;20.10;72.80;;;;;;5011106;28;20026;-68
2021/07/21 02:27:30;;;;;;;16.95;10.00;;;20.10;72.90;;;;;;5019064;28;20496;-68
2021/07/21 02:29:57;;;;;;;17.73;8.90;;;20.10;73.00;;;;;;5014864;28;20137;-68
2021/07/21 02:32:35;;;;;;;19.67;9.68;;;20.10;73.10;;;;;;5023440;28;20560;-68
2021/07/21 02:35:02;;;;;;;16.85;9.63;;;20.10;73.30;;;;;;5023145;28;20038;-68
2021/07/21 02:37:29;;;;;;;15.98;9.48;;;20.10;73.40;;;;;;5019942;28;20481;-68
2021/07/21 02:39:55;;;;;;;17.45;7.97;;;20.10;73.40;;;;;;5019847;28;20034;-68
2021/07/21 02:42:22;;;;;;;17.95;9.52;;;20.10;73.40;;;;;;5012661;28;20029;-68
2021/07/21 02:44:50;;;;;;;16.70;9.90;;;20.00;73.50;;;;;;5013036;28;20072;-68
2021/07/21 02:47:20;;;;;;;19.42;9.23;;;20.10;73.60;;;;;;5013674;28;20102;-69
2021/07/21 02:49:52;;;;;;;24.38;9.60;;;20.10;73.50;;;;;;5020801;28;20042;-68
2021/07/21 02:52:41;;;;;;;19.17;10.55;;;20.10;73.60;;;;;;5021310;28;20034;-68
2021/07/21 02:55:39;;;;;;;19.42;9.30;;;20.10;73.80;;;;;;5023588;28;20084;-68
2021/07/21 02:58:36;;;;;;;20.90;9.20;;;20.00;73.90;;;;;;5021806;28;20508;-68
2021/07/21 03:01:03;;;;;;;20.17;9.55;;;20.10;73.90;;;;;;5019326;28;20033;-68
2021/07/21 03:03:35;;;;;;;21.45;10.57;;;20.00;74.00;;;;;;5025756;28;20033;-68
2021/07/21 03:06:08;;;;;;;20.02;9.55;;;20.10;74.10;;;;;;5030874;28;20094;-68
2021/07/21 03:08:50;;;;;;;17.10;8.88;;;20.00;74.30;;;;;;5011509;28;20388;-69
2021/07/21 03:11:23;;;;;;;15.43;9.13;;;20.10;74.10;;;;;;5010072;28;20588;-69
2021/07/21 03:13:57;;;;;;;18.85;7.70;;;20.00;74.00;;;;;;5023708;28;20049;-68
2021/07/21 03:16:26;;;;;;;18.10;8.30;;;20.00;74.00;;;;;;5034258;28;20079;-68
2021/07/21 03:18:57;;;;;;;17.23;8.82;;;20.00;74.00;;;;;;5023381;28;20049;-68
2021/07/21 03:21:30;;;;;;;23.88;8.80;;;20.00;74.10;;;;;;5015016;28;20026;-68
2021/07/21 03:24:06;;;;;;;20.20;8.90;;;20.00;74.10;;;;;;5017445;28;20034;-68
2021/07/21 03:26:54;;;;;;;19.10;9.15;;;20.00;74.10;;;;;;5025438;28;20028;-68
2021/07/21 03:29:24;;;;;;;20.60;8.68;;;20.00;74.20;;;;;;5014925;28;20113;-68
2021/07/21 03:31:57;;;;;;;24.48;9.27;;;20.00;74.30;;;;;;5018833;28;20053;-68
2021/07/21 03:34:25;;;;;;;19.80;8.32;;;20.00;74.40;;;;;;5017786;28;20048;-68
2021/07/21 03:36:59;;;;;;;22.55;8.63;;;20.00;74.70;;;;;;5019535;28;20458;-68
2021/07/21 03:39:52;;;;;;;22.25;9.25;;;20.00;74.70;;;;;;5010121;28;20084;-68
2021/07/21 03:42:39;;;;;;;22.97;7.40;;;19.90;74.90;;;;;;5007822;28;20500;-68
2021/07/21 03:45:11;;;;;;;21.83;8.88;;;20.00;74.90;;;;;;5015083;28;20277;-68
2021/07/21 03:47:39;;;;;;;17.40;8.20;;;20.00;75.10;;;;;;5011245;28;20022;-68
2021/07/21 03:50:06;;;;;;;19.42;8.50;;;19.90;75.10;;;;;;5013205;28;20033;-68
2021/07/21 03:52:39;;;;;;;18.10;9.00;;;19.90;75.40;;;;;;5013855;28;20489;-68
2021/07/21 03:55:10;;;;;;;18.50;8.73;;;19.90;75.50;;;;;;5020723;28;20036;-68
2021/07/21 03:57:57;;;;;;;17.00;9.02;;;19.90;75.50;;;;;;5020124;28;20032;-68
2021/07/21 04:00:32;;;;;;;16.35;8.60;;;19.90;75.40;;;;;;5014218;28;20029;-68
2021/07/21 04:03:05;;;;;;;16.63;8.98;;;19.90;75.70;;;;;;5012598;28;20065;-69
2021/07/21 04:05:47;;;;;;;16.58;8.30;;;19.90;75.90;;;;;;5030932;28;20029;-68
2021/07/21 04:08:16;;;;;;;17.48;8.95;;;19.90;76.00;;;;;;5020170;28;20083;-68
2021/07/21 04:10:44;;;;;;;16.10;8.13;;;19.90;76.00;;;;;;5012493;28;20060;-68
2021/07/21 04:13:10;;;;;;;16.15;8.98;;;19.80;75.80;;;;;;5023622;28;20125;-68
2021/07/21 04:15:57;;;;;;;23.30;9.23;;;19.80;76.00;;;;;;5021085;28;20072;-68
2021/07/21 04:18:29;;;;;;;18.33;8.30;;;19.80;76.10;;;;;;5042600;28;20141;-68
2021/07/21 04:20:59;;;;;;;18.15;8.68;;;19.80;76.00;;;;;;5020206;28;20080;-69
2021/07/21 04:23:26;;;;;;;18.67;9.15;;;19.70;76.00;;;;;;5034437;28;20036;-68
2021/07/21 04:25:53;;;;;;;18.48;9.07;;;19.70;76.00;;;;;;5017534;28;20026;-68
2021/07/21 04:28:19;;;;;;;16.83;8.27;;;19.70;76.30;;;;;;5013187;28;20481;-68
2021/07/21 04:31:06;;;;;;;17.23;8.35;;;19.70;76.30;;;;;;5013922;28;20497;-68
2021/07/21 04:33:34;;;;;;;16.17;7.80;;;19.70;76.20;;;;;;5022087;28;20496;-69
2021/07/21 04:36:02;;;;;;;17.67;8.13;;;19.70;76.20;;;;;;5032521;28;20393;-69
2021/07/21 04:38:30;;;;;;;15.52;8.13;;;19.70;76.20;;;;;;5012496;28;20041;-68
2021/07/21 04:41:05;;;;;;;28.38;8.48;;;19.70;76.10;;;;;;5029402;28;20057;-68
2021/07/21 04:43:44;;;;;;;21.58;9.13;;;19.70;76.00;;;;;;5018400;28;20111;-69
2021/07/21 04:46:23;;;;;;;19.45;8.43;;;19.60;76.00;;;;;;5020169;28;20036;-68
2021/07/21 04:48:49;;;;;;;16.27;8.30;;;19.60;76.10;;;;;;5016807;28;20022;-69
2021/07/21 04:51:25;;;;;;;17.38;8.38;;;19.60;76.30;;;;;;5015817;28;20026;-69
2021/07/21 04:54:03;;;;;;;19.35;8.55;;;19.60;76.10;;;;;;5021582;28;20559;-69
2021/07/21 04:56:33;;;;;;;20.15;8.73;;;19.60;76.30;;;;;;5014595;28;20077;-69
2021/07/21 04:58:59;;;;;;;15.85;7.55;;;19.60;76.30;;;;;;5025745;28;20030;-69
2021/07/21 05:01:26;;;;;;;15.90;8.00;;;19.60;76.30;;;;;;5020916;28;20515;-69
2021/07/21 05:03:54;;;;;;;20.30;8.52;;;19.60;76.30;;;;;;5024121;28;20030;-69
2021/07/21 05:06:40;;;;;;;16.77;7.95;;;19.70;76.30;;;;;;5020210;28;20034;-69
2021/07/21 05:09:13;;;;;;;13.77;7.82;;;19.60;76.00;;;;;;5013176;28;20144;-69
2021/07/21 05:11:44;;;;;;;20.63;8.02;;;19.60;75.90;;;;;;5016302;28;20032;-69
2021/07/21 05:14:10;;;;;;;13.80;7.80;;;19.60;75.80;;;;;;5014106;28;20498;-69
2021/07/21 05:16:56;;;;;;;17.08;8.82;;;19.60;75.90;;;;;;5022032;28;20034;-69
2021/07/21 05:19:22;;;;;;;17.70;8.25;;;19.60;76.30;;;;;;5019185;28;20055;-69
2021/07/21 05:21:48;;;;;;;18.35;8.25;;;19.60;76.30;;;;;;5019321;28;20026;-69
2021/07/21 05:24:14;;;;;;;24.98;8.60;;;19.60;76.30;;;;;;5023333;28;20021;-70
2021/07/21 05:26:41;;;;;;;16.48;6.45;;;19.60;76.20;;;;;;5024445;28;20435;-71
2021/07/21 05:29:16;;;;;;;12.85;6.97;;;19.60;76.30;;;;;;5023425;28;20128;-71
2021/07/21 05:32:03;;;;;;;15.95;7.00;;;19.60;76.40;;;;;;5024423;28;20046;-71
2021/07/21 05:34:32;;;;;;;12.57;5.85;;;19.60;76.20;;;;;;5027582;28;20072;-71
2021/07/21 05:37:30;;;;;;;13.65;6.90;;;19.60;75.90;;;;;;5008008;28;20437;-71
2021/07/21 05:40:00;;;;;;;10.77;6.22;;;19.60;75.40;;;;;;5013457;28;20037;-70
2021/07/21 05:43:01;;;;;;;13.73;6.28;;;19.70;75.80;;;;;;5013878;28;20040;-71
2021/07/21 05:45:32;;;;;;;15.80;6.15;;;19.60;75.80;;;;;;5013279;28;20033;-71
2021/07/21 05:47:58;;;;;;;14.40;6.95;;;19.60;75.90;;;;;;5012238;28;20030;-70
2021/07/21 05:50:25;;;;;;;15.90;7.25;;;19.60;75.90;;;;;;5013258;28;20080;-71
2021/07/21 05:52:55;;;;;;;14.10;7.05;;;19.60;75.90;;;;;;5024185;28;20045;-70
2021/07/21 05:55:22;;;;;;;14.88;6.65;;;19.70;76.10;;;;;;5029841;28;20559;-71
2021/07/21 05:57:58;;;;;;;13.20;6.18;;;19.70;76.00;;;;;;5029501;28;20124;-71
2021/07/21 06:00:24;;;;;;;12.90;5.93;;;19.70;75.70;;;;;;5035918;28;20022;-71
2021/07/21 06:02:58;;;;;;;13.48;6.15;;;19.70;75.60;;;;;;5019378;28;20061;-71
2021/07/21 06:05:44;;;;;;;12.52;5.82;;;19.70;75.70;;;;;;5019688;28;20547;-70
2021/07/21 06:08:30;;;;;;;10.43;5.63;;;19.70;75.70;;;;;;5028981;28;20132;-71
2021/07/21 06:10:59;;;;;;;13.18;7.05;;;19.70;75.70;;;;;;5026729;28;20025;-71
2021/07/21 06:13:25;;;;;;;13.38;5.82;;;19.70;76.30;;;;;;5028835;28;20041;-70
2021/07/21 06:15:52;;;;;;;13.95;6.40;;;19.70;76.00;;;;;;5025567;28;20030;-71
2021/07/21 06:18:18;;;;;;;12.02;5.90;;;19.80;76.40;;;;;;5032658;28;20498;-71
2021/07/21 06:20:48;;;;;;;13.02;6.10;;;19.80;76.50;;;;;;5026921;28;20029;-71
2021/07/21 06:23:13;;;;;;;16.92;6.65;;;19.80;76.80;;;;;;5011986;28;20540;-70
2021/07/21 06:25:45;;;;;;;11.40;6.45;;;19.80;76.80;;;;;;5010626;28;20025;-71
2021/07/21 06:28:25;;;;;;;13.68;5.03;;;19.80;76.80;;;;;;5018833;28;20034;-71
2021/07/21 06:30:51;;;;;;;18.35;6.50;;;19.80;76.60;;;;;;5028643;28;20030;-71
2021/07/21 06:33:22;;;;;;;12.45;5.47;;;19.80;76.70;;;;;;5018709;28;20125;-71
2021/07/21 06:35:49;;;;;;;10.93;5.25;;;19.90;76.60;;;;;;5021831;28;20022;-71
2021/07/21 06:38:17;;;;;;;10.98;5.45;;;19.90;76.60;;;;;;5015153;28;20093;-70
2021/07/21 06:40:52;;;;;;;12.73;6.30;;;19.90;76.70;;;;;;5014555;28;20370;-71
2021/07/21 06:43:18;;;;;;;11.23;6.05;;;19.90;76.90;;;;;;5011156;28;20036;-70
2021/07/21 06:45:59;;;;;;;11.93;6.20;;;20.00;77.00;;;;;;5012935;28;20029;-71
2021/07/21 06:48:26;;;;;;;9.93;5.25;;;20.00;76.90;;;;;;5014621;28;20030;-71
2021/07/21 06:50:52;;;;;;;10.70;5.53;;;20.00;76.80;;;;;;5010309;28;20429;-70
2021/07/21 06:53:20;;;;;;;10.63;5.68;;;20.00;76.80;;;;;;5014279;28;20120;-70
2021/07/21 06:56:04;;;;;;;9.48;3.90;;;20.10;77.10;;;;;;5013692;28;20106;-71
2021/07/21 06:58:42;;;;;;;8.68;5.38;;;20.10;76.50;;;;;;5018519;28;20061;-76
2021/07/21 07:01:14;;;;;;;9.95;5.57;;;20.10;76.80;;;;;;5031988;28;20068;-76
2021/07/21 07:04:12;;;;;;;7.57;4.22;;;20.10;76.90;;;;;;4999496;28;20097;-73
2021/07/21 07:07:00;;;;;;;7.80;3.17;;;20.10;76.50;;;;;;5023570;28;20124;-75
2021/07/21 07:09:45;;;;;;;8.40;4.03;;;20.20;76.50;;;;;;5013505;28;20033;-75
2021/07/21 07:12:25;;;;;;;7.15;3.35;;;20.10;76.60;;;;;;5021681;28;20052;-73
2021/07/21 07:14:57;;;;;;;13.15;3.67;;;20.10;76.60;;;;;;5031157;28;20037;-75
2021/07/21 07:17:25;;;;;;;8.50;4.95;;;20.20;76.80;;;;;;5043010;28;20385;-71
2021/07/21 07:19:52;;;;;;;8.18;3.85;;;20.10;77.00;;;;;;5018832;28;20046;-70
2021/07/21 07:22:17;;;;;;;9.32;4.70;;;20.20;77.00;;;;;;5031166;28;20084;-70
2021/07/21 07:24:43;;;;;;;7.80;4.22;;;20.20;77.30;;;;;;5015862;28;20389;-70
2021/07/21 07:27:09;;;;;;;9.90;3.80;;;20.20;77.10;;;;;;5034406;28;20044;-70
2021/07/21 07:29:35;;;;;;;12.25;5.18;;;20.30;76.90;;;;;;5022504;28;20037;-70
2021/07/21 07:32:01;;;;;;;7.20;3.50;;;20.30;77.10;;;;;;5034023;28;20110;-70
2021/07/21 07:34:26;;;;;;;10.55;4.38;;;20.30;76.80;;;;;;5024575;28;20062;-74
2021/07/21 07:36:52;;;;;;;6.60;3.53;;;20.40;76.90;;;;;;5019547;28;20033;-72
2021/07/21 07:39:18;;;;;;;12.93;4.00;;;20.40;76.80;;;;;;5021965;28;20040;-74
2021/07/21 07:41:44;;;;;;;5.65;3.20;;;20.40;77.00;;;;;;5023257;28;20417;-75
2021/07/21 07:44:10;;;;;;;13.75;4.18;;;20.40;77.00;;;;;;5018127;28;20113;-75
2021/07/21 07:46:36;;;;;;;8.88;4.32;;;20.50;77.00;;;;;;5017307;28;20110;-75
2021/07/21 07:49:03;;;;;;;9.52;4.65;;;20.50;77.00;;;;;;5013167;28;20041;-74
2021/07/21 07:51:29;;;;;;;10.60;4.78;;;20.50;77.10;;;;;;5020164;28;20055;-72
2021/07/21 07:53:58;;;;;;;11.55;3.80;;;20.60;77.00;;;;;;5016021;28;20048;-75
2021/07/21 07:56:25;;;;;;;6.25;3.95;;;20.60;76.90;;;;;;5015508;28;20477;-70
2021/07/21 07:58:51;;;;;;;11.98;4.50;;;20.60;76.90;;;;;;5015766;28;20476;-70
2021/07/21 08:01:16;;;;;;;7.20;3.80;;;20.60;77.10;;;;;;5018415;28;20117;-70
2021/07/21 08:03:42;;;;;;;7.13;3.95;;;20.70;76.90;;;;;;5014346;28;20041;-70
2021/07/21 08:06:08;;;;;;;4.93;2.67;;;20.70;76.90;;;;;;5014770;28;20022;-70
2021/07/21 08:08:34;;;;;;;8.00;4.50;;;20.70;76.60;;;;;;5015814;28;20357;-70
2021/07/21 08:11:00;;;;;;;6.07;2.35;;;20.70;76.80;;;;;;5019432;28;20026;-70
2021/07/21 08:13:26;;;;;;;6.70;4.18;;;20.70;76.30;;;;;;5015840;28;20049;-69
2021/07/21 08:15:52;;;;;;;6.72;3.75;;;20.80;76.40;;;;;;5019532;28;20465;-70
2021/07/21 08:18:18;;;;;;;5.20;2.65;;;20.90;76.30;;;;;;5013737;28;20108;-70
2021/07/21 08:20:44;;;;;;;8.30;4.80;;;20.90;76.10;;;;;;5016417;28;20065;-70
2021/07/21 08:23:11;;;;;;;2.22;1.60;;;20.90;75.50;;;;;;5022655;28;20484;-70
2021/07/21 08:25:37;;;;;;;9.13;4.07;;;21.00;75.70;;;;;;5020100;28;20021;-70
2021/07/21 08:28:03;;;;;;;10.43;5.18;;;21.00;75.40;;;;;;5018495;28;20038;-69
2021/07/21 08:30:29;;;;;;;4.60;2.72;;;21.00;75.20;;;;;;5028041;28;20390;-69
2021/07/21 08:32:56;;;;;;;6.93;3.20;;;21.10;75.30;;;;;;5023768;28;20041;-70
2021/07/21 08:35:24;;;;;;;6.28;2.63;;;21.10;75.00;;;;;;5030597;28;20037;-70
2021/07/21 08:37:50;;;;;;;6.20;3.28;;;21.10;74.80;;;;;;5025020;28;20440;-70
2021/07/21 08:40:18;;;;;;;9.00;3.85;;;21.20;74.50;;;;;;5023616;28;20032;-70
2021/07/21 08:42:46;;;;;;;5.25;3.33;;;21.20;74.40;;;;;;5027717;28;20034;-69
2021/07/21 08:45:12;;;;;;;6.22;3.42;;;21.20;74.10;;;;;;5017291;28;20470;-69
2021/07/21 08:47:38;;;;;;;7.10;3.60;;;21.30;74.10;;;;;;5021859;28;20105;-70
2021/07/21 08:50:06;;;;;;;7.80;4.30;;;21.30;73.50;;;;;;5016833;28;20180;-70
2021/07/21 08:52:33;;;;;;;9.13;3.80;;;21.30;73.30;;;;;;5016178;28;20022;-69
2021/07/21 08:55:00;;;;;;;8.52;4.68;;;21.40;73.40;;;;;;5020519;28;20033;-69
2021/07/21 08:57:32;;;;;;;7.43;4.15;;;21.50;73.40;;;;;;5012792;28;20052;-69
2021/07/21 08:59:59;;;;;;;5.97;3.53;;;21.60;73.50;;;;;;5013364;28;20048;-69
2021/07/21 09:02:25;;;;;;;8.65;3.75;;;21.60;73.60;;;;;;5013075;28;20038;-70
2021/07/21 09:04:51;;;;;;;8.38;3.30;;;21.70;73.30;;;;;;5024945;28;20038;-69
2021/07/21 09:07:17;;;;;;;9.60;3.90;;;21.70;73.20;;;;;;5019208;28;20033;-70
2021/07/21 09:09:43;;;;;;;12.98;4.20;;;21.80;73.40;;;;;;5014426;28;20116;-69
2021/07/21 09:12:09;;;;;;;7.40;3.22;;;21.80;73.50;;;;;;5014287;28;20030;-69
2021/07/21 09:14:38;;;;;;;6.47;3.55;;;21.90;73.50;;;;;;5020667;28;20037;-69
2021/07/21 09:17:09;;;;;;;8.60;4.25;;;21.90;73.40;;;;;;5033675;28;20561;-69
2021/07/21 09:19:40;;;;;;;7.40;3.78;;;21.90;73.10;;;;;;5025601;28;20498;-69
2021/07/21 09:22:22;;;;;;;8.30;4.60;;;22.00;73.30;;;;;;5019664;28;20057;-69
2021/07/21 09:25:12;;;;;;;6.80;4.50;;;22.00;73.20;;;;;;5021099;28;20029;-70
2021/07/21 09:27:40;;;;;;;8.93;4.65;;;22.10;72.70;;;;;;5019217;28;20112;-70
2021/07/21 09:30:07;;;;;;;10.20;3.97;;;22.20;72.90;;;;;;5016994;28;20038;-70
2021/07/21 09:32:52;;;;;;;8.43;4.43;;;22.20;72.90;;;;;;5015800;28;20037;-71
2021/07/21 09:35:19;;;;;;;8.85;4.55;;;22.30;73.10;;;;;;5016162;28;20029;-70
2021/07/21 09:37:45;;;;;;;7.30;3.30;;;22.40;72.70;;;;;;5018805;28;20153;-71
2021/07/21 09:40:11;;;;;;;7.97;4.47;;;22.40;72.70;;;;;;5028051;28;20112;-71
2021/07/21 09:42:38;;;;;;;10.07;3.50;;;22.50;72.70;;;;;;5019409;28;20460;-70
2021/07/21 09:45:08;;;;;;;10.88;3.95;;;22.50;72.60;;;;;;5018919;28;20038;-69
2021/07/21 09:47:39;;;;;;;11.50;4.35;;;22.50;72.40;;;;;;5022306;28;20359;-69
2021/07/21 09:50:31;;;;;;;12.13;4.88;;;22.60;72.30;;;;;;5012496;28;20038;-75
2021/07/21 09:53:05;;;;;;;11.57;4.10;;;22.60;72.90;;;;;;5017515;28;20500;-70
2021/07/21 09:55:35;;;;;;;7.45;3.70;;;22.60;72.80;;;;;;5015559;28;20069;-70
2021/07/21 09:58:06;;;;;;;8.23;4.40;;;22.70;72.60;;;;;;5017280;28;20097;-70
2021/07/21 10:00:42;;;;;;;8.25;4.40;;;22.70;71.90;;;;;;5013219;28;20038;-71
2021/07/21 10:03:29;;;;;;;9.07;4.45;;;22.70;71.80;;;;;;5016591;28;20029;-69
2021/07/21 10:06:02;;;;;;;12.07;3.53;;;22.80;72.00;;;;;;5028447;28;20060;-70
2021/07/21 10:08:37;;;;;;;;;;;22.80;72.00;;;;;;5014599;28;20030;-70
2021/07/21 10:11:21;;;;;;;14.70;4.78;;;22.90;72.30;;;;;;5012672;28;19917;-70
2021/07/21 10:13:48;;;;;;;9.13;3.78;;;22.90;72.30;;;;;;5012175;28;20095;-70
2021/07/21 10:16:41;;;;;;;7.68;4.32;;;23.00;72.50;;;;;;5016860;28;20457;-70
2021/07/21 10:19:30;;;;;;;9.82;4.10;;;23.00;72.50;;;;;;5014565;28;20065;-78
2021/07/21 10:22:03;;;;;;;8.23;4.25;;;23.00;72.60;;;;;;5014521;28;20092;-70
2021/07/21 10:24:32;;;;;;;9.20;5.22;;;23.00;72.80;;;;;;5019070;28;20026;-70
2021/07/21 10:26:59;;;;;;;12.05;3.97;;;23.10;72.40;;;;;;5011715;28;20109;-69
2021/07/21 10:29:25;;;;;;;8.25;3.97;;;23.10;72.70;;;;;;5014573;28;20033;-72
2021/07/21 10:31:52;;;;;;;8.30;5.10;;;23.10;72.40;;;;;;5021779;28;20393;-74
2021/07/21 10:34:19;;;;;;;7.30;4.00;;;23.10;71.70;;;;;;5016039;28;20107;-72
2021/07/21 10:36:46;;;;;;;9.85;4.18;;;23.20;71.80;;;;;;5018367;28;20047;-71
2021/07/21 10:39:32;;;;;;;8.82;4.72;;;23.20;71.60;;;;;;5014153;28;20033;-71
2021/07/21 10:42:05;;;;;;;10.85;5.43;;;23.30;71.40;;;;;;5018768;28;20072;-69
2021/07/21 10:44:31;;;;;;;13.43;5.72;;;23.30;70.80;;;;;;5016810;28;20034;-70
2021/07/21 10:46:56;;;;;;;9.60;4.97;;;23.40;71.10;;;;;;5014437;28;20053;-70
2021/07/21 11:00:21;;;;;;;10.20;6.22;;;23.70;71.60;;;;;;5018559;28;20038;-71
2021/07/21 11:02:52;;;;;;;14.77;6.10;;;23.80;71.50;;;;;;5017519;28;20034;-69
2021/07/21 11:05:30;;;;;;;10.82;5.63;;;23.80;71.50;;;;;;5016419;28;20030;-70
2021/07/21 11:07:56;;;;;;;9.23;5.15;;;23.80;71.20;;;;;;5023592;28;20113;-69
2021/07/21 11:10:43;;;;;;;10.07;5.22;;;23.90;71.20;;;;;;5019991;28;20053;-70
2021/07/21 11:13:12;;;;;;;9.68;5.30;;;23.90;71.40;;;;;;5019115;28;20038;-69
2021/07/21 11:15:44;;;;;;;12.48;5.15;;;23.90;71.60;;;;;;5019502;28;20037;-69
2021/07/21 11:18:24;;;;;;;19.45;5.78;;;24.00;71.70;;;;;;5020270;28;20112;-69
2021/07/21 11:20:57;;;;;;;11.18;5.95;;;24.00;72.00;;;;;;5015871;28;20022;-70
2021/07/21 11:23:42;;;;;;;15.60;6.00;;;24.10;71.80;;;;;;5019258;28;20535;-69
2021/07/21 11:26:29;;;;;;;12.48;6.55;;;24.10;71.80;;;;;;5015749;28;20390;-69
2021/07/21 11:28:57;;;;;;;11.52;6.38;;;24.10;71.40;;;;;;5018281;28;20040;-69
2021/07/21 11:31:53;;;;;;;7.85;3.95;;;24.10;71.40;;;;;;5020658;28;20072;-69
2021/07/21 11:34:35;;;;;;;11.95;6.30;;;24.20;71.60;;;;;;5021437;28;20041;-69
2021/07/21 11:37:06;;;;;;;10.20;5.07;;;24.20;71.20;;;;;;5023387;28;20041;-69
2021/07/21 11:39:36;;;;;;;11.02;5.00;;;24.20;71.30;;;;;;5015920;28;20026;-70
2021/07/21 11:42:03;;;;;;;8.40;4.72;;;24.30;71.70;;;;;;5017112;28;20042;-69
2021/07/21 11:44:38;;;;;;;9.93;4.85;;;24.30;71.30;;;;;;5018637;28;20040;-69
2021/07/21 11:47:13;;;;;;;8.98;5.07;;;24.30;71.40;;;;;;5015163;28;20029;-69
2021/07/21 11:49:46;;;;;;;9.93;5.82;;;24.30;71.30;;;;;;5015352;28;20022;-69
2021/07/21 11:52:12;;;;;;;7.40;4.53;;;24.40;70.90;;;;;;5022418;28;20063;-69
2021/07/21 11:54:38;;;;;;;8.45;4.47;;;24.40;71.20;;;;;;5023963;28;20045;-69
2021/07/21 11:57:07;;;;;;;12.35;4.95;;;24.40;71.10;;;;;;5032084;28;20057;-69
2021/07/21 11:59:38;;;;;;;9.30;4.97;;;24.50;71.00;;;;;;5029922;28;20108;-70
2021/07/21 12:02:19;;;;;;;11.43;5.40;;;24.60;71.10;;;;;;5019206;28;20026;-69
2021/07/21 12:04:50;;;;;;;9.95;4.85;;;24.50;70.60;;;;;;5017301;28;20037;-70
2021/07/21 12:07:18;;;;;;;9.10;4.65;;;24.60;70.80;;;;;;5019374;28;20030;-70
2021/07/21 12:09:47;;;;;;;13.48;4.55;;;24.60;70.90;;;;;;5017678;28;20476;-69
2021/07/21 12:12:16;;;;;;;7.57;4.32;;;24.60;70.80;;;;;;5009115;28;20038;-70
2021/07/21 12:14:59;;;;;;;11.65;5.18;;;24.60;70.60;;;;;;5016779;28;20033;-69
2021/07/21 12:17:26;;;;;;;11.45;4.60;;;24.70;70.40;;;;;;5042835;28;20053;-69
2021/07/21 12:19:55;;;;;;;24.33;5.32;;;24.70;70.70;;;;;;5014410;28;20176;-69
2021/07/21 12:22:22;;;;;;;8.65;4.88;;;24.70;71.30;;;;;;5027106;28;20036;-69
2021/07/21 12:24:51;;;;;;;7.10;4.25;;;24.70;70.60;;;;;;5017557;28;20029;-69
2021/07/21 12:27:28;;;;;;;8.82;4.30;;;24.70;71.00;;;;;;5020438;28;20061;-70
2021/07/21 12:29:57;;;;;;;9.00;4.22;;;24.70;69.90;;;;;;5013515;28;20116;-70
2021/07/21 12:32:25;;;;;;;9.38;4.30;;;24.70;70.30;;;;;;5015431;28;20032;-70
2021/07/21 12:34:52;;;;;;;11.40;4.15;;;24.80;70.40;;;;;;5020225;28;20042;-69
2021/07/21 12:37:23;;;;;;;9.02;4.18;;;24.80;71.20;;;;;;5011617;28;20505;-69
2021/07/21 12:39:50;;;;;;;10.32;5.00;;;24.80;71.80;;;;;;5013413;28;20034;-69
2021/07/21 12:42:19;;;;;;;9.57;3.58;;;24.80;70.60;;;;;;5024039;28;20040;-70
2021/07/21 12:44:48;;;;;;;8.68;4.93;;;24.90;71.00;;;;;;5016846;28;20639;-69
2021/07/21 12:47:18;;;;;;;8.85;4.65;;;24.90;71.00;;;;;;5020799;28;20037;-70
2021/07/21 12:49:47;;;;;;;12.07;6.13;;;24.90;70.10;;;;;;5015946;28;20034;-70
2021/07/21 12:52:19;;;;;;;9.10;5.20;;;24.90;70.10;;;;;;5013770;28;20490;-69
2021/07/21 12:54:50;;;;;;;7.20;4.00;;;24.90;70.10;;;;;;5015706;28;20485;-70
2021/07/21 12:57:44;;;;;;;7.38;3.90;;;25.00;70.60;;;;;;5028099;28;20021;-69
2021/07/21 13:00:14;;;;;;;9.35;4.75;;;25.00;71.20;;;;;;5024563;28;20036;-70
2021/07/21 13:02:51;;;;;;;9.75;5.15;;;25.10;70.50;;;;;;5028275;28;20056;-69
2021/07/21 13:05:33;;;;;;;11.05;4.35;;;25.10;69.60;;;;;;5017722;28;20255;-69
2021/07/21 13:08:04;;;;;;;10.60;4.50;;;25.20;70.00;;;;;;5023916;28;20488;-69
2021/07/21 13:10:31;;;;;;;15.35;4.85;;;25.20;70.40;;;;;;5026368;28;20057;-69
2021/07/21 13:12:57;;;;;;;11.32;4.45;;;25.20;70.70;;;;;;5012796;28;20034;-69
2021/07/21 13:15:35;;;;;;;7.45;3.97;;;25.20;70.20;;;;;;5026193;28;20108;-69
2021/07/21 13:18:10;;;;;;;9.00;4.28;;;25.40;70.80;;;;;;5015631;28;20034;-70
2021/07/21 13:20:42;;;;;;;9.52;4.10;;;25.40;70.60;;;;;;5010583;28;20077;-70